createdAt,value
2019-05-12T01:52:29.518Z,5.10
2019-05-12T01:57:18.676Z,5.10
2019-05-12T02:02:02.430Z,5.10
2019-05-12T02:06:48.512Z,5.20
2019-05-12T02:11:33.534Z,5.20
2019-05-12T02:16:19.014Z,5.30
2019-05-12T02:21:04.008Z,5.40
2019-05-12T02:25:48.770Z,5.50
2019-05-12T02:30:34.169Z,5.50
2019-05-12T02:35:19.263Z,5.50
2019-05-12T02:40:04.768Z,5.60
2019-05-12T02:44:50.140Z,5.70
2019-05-12T02:49:35.445Z,5.70
2019-05-12T02:54:25.003Z,5.70
2019-05-12T02:59:09.856Z,5.80
2019-05-12T03:03:56.455Z,5.70
2019-05-12T03:08:44.691Z,5.80
2019-05-12T03:13:28.162Z,5.80
2019-05-12T03:18:14.614Z,5.70
2019-05-12T03:23:00.066Z,5.60
2019-05-12T03:27:44.928Z,5.60
2019-05-12T03:32:29.709Z,5.60
2019-05-12T03:37:17.893Z,5.60
2019-05-12T03:42:05.163Z,5.60
2019-05-12T03:46:50.340Z,5.60
2019-05-12T03:51:36.743Z,5.50
2019-05-12T03:56:25.521Z,5.60
2019-05-12T04:01:08.726Z,5.70
2019-05-12T04:05:55.307Z,5.70
2019-05-12T04:10:40.719Z,5.70
2019-05-12T04:15:25.828Z,5.80
2019-05-12T04:20:10.850Z,5.90
2019-05-12T04:24:55.524Z,6.00
2019-05-12T04:29:44.151Z,6.00
2019-05-12T04:34:29.256Z,6.00
2019-05-12T04:39:14.874Z,6.10
2019-05-12T04:44:00.052Z,6.20
2019-05-12T04:48:46.361Z,6.10
2019-05-12T04:53:31.279Z,6.10
2019-05-12T04:58:16.340Z,6.20
2019-05-12T05:03:01.320Z,6.20
2019-05-12T05:07:46.106Z,6.20
2019-05-12T05:12:30.856Z,6.30
2019-05-12T05:17:15.588Z,6.20
2019-05-12T05:22:00.502Z,6.40
2019-05-12T05:26:49.551Z,6.30
2019-05-12T05:31:36.940Z,6.40
2019-05-12T05:36:21.838Z,6.60
2019-05-12T05:41:10.482Z,6.60
2019-05-12T05:45:56.104Z,6.60
2019-05-12T05:50:39.553Z,6.70
2019-05-12T05:55:24.750Z,6.70
2019-05-12T06:00:17.550Z,6.80
2019-05-12T06:04:58.226Z,6.90
2019-05-12T06:09:46.893Z,6.90
2019-05-12T06:14:34.457Z,7.00
2019-05-12T06:19:19.764Z,7.20
2019-05-12T06:24:08.640Z,7.30
2019-05-12T06:28:51.141Z,7.50
2019-05-12T06:33:36.469Z,7.70
2019-05-12T06:38:24.456Z,8.00
2019-05-12T06:43:09.243Z,8.00
2019-05-12T06:47:56.153Z,8.20
2019-05-12T06:52:48.895Z,8.30
2019-05-12T06:57:30.952Z,8.50
2019-05-12T07:02:17.941Z,8.90
2019-05-12T07:07:04.894Z,8.90
2019-05-12T07:11:58.865Z,9.30
2019-05-12T07:16:36.287Z,9.90
2019-05-12T07:21:24.182Z,10.50
2019-05-12T07:26:13.981Z,11.10
2019-05-12T07:30:54.639Z,11.00
2019-05-12T07:35:44.139Z,10.90
2019-05-12T07:40:30.552Z,10.90
2019-05-12T07:45:20.503Z,11.10
2019-05-12T07:50:04.512Z,10.80
2019-05-12T07:54:52.595Z,10.50
2019-05-12T07:59:40.926Z,10.70
2019-05-12T08:04:23.922Z,11.00
2019-05-12T08:09:09.751Z,11.20
2019-05-12T08:13:54.592Z,11.20
2019-05-12T08:18:44.601Z,11.30
2019-05-12T08:23:37.917Z,11.80
2019-05-12T08:28:28.135Z,11.60
2019-05-12T08:33:10.142Z,12.20
2019-05-12T08:37:55.031Z,12.70
2019-05-12T08:42:39.667Z,13.00
2019-05-12T08:47:29.014Z,13.50
2019-05-12T08:52:10.657Z,13.40
2019-05-12T08:56:59.316Z,13.50
2019-05-12T09:01:43.764Z,12.90
2019-05-12T09:06:29.043Z,12.90
2019-05-12T09:11:14.184Z,13.30
2019-05-12T09:15:59.118Z,13.20
2019-05-12T09:20:48.745Z,13.80
2019-05-12T09:25:30.378Z,13.80
2019-05-12T09:30:17.964Z,14.00
2019-05-12T09:35:03.959Z,14.00
2019-05-12T09:39:51.281Z,13.50
2019-05-12T09:44:35.747Z,14.00
2019-05-12T09:49:25.094Z,13.90
2019-05-12T09:54:07.003Z,14.40
2019-05-12T09:58:59.056Z,14.00
2019-05-12T10:03:41.083Z,13.70
2019-05-12T10:08:29.253Z,14.70
2019-05-12T10:13:13.885Z,14.90
2019-05-12T10:18:00.274Z,14.40
2019-05-12T10:22:45.982Z,13.70
2019-05-12T10:27:32.497Z,13.80
2019-05-12T10:32:17.135Z,14.50
2019-05-12T10:37:05.507Z,13.80
2019-05-12T10:41:50.498Z,14.00
2019-05-12T10:46:35.711Z,14.70
2019-05-12T10:51:20.531Z,14.50
2019-05-12T10:56:05.399Z,14.90
2019-05-12T11:00:50.242Z,14.70
2019-05-12T11:05:35.056Z,15.10
2019-05-12T11:10:20.298Z,15.30
2019-05-12T11:15:08.492Z,15.30
2019-05-12T11:19:54.167Z,14.90
2019-05-12T11:24:39.328Z,14.30
2019-05-12T11:29:24.355Z,15.10
2019-05-12T11:34:09.052Z,15.30
2019-05-12T11:38:54.214Z,14.40
2019-05-12T11:43:38.977Z,15.20
2019-05-12T11:48:23.879Z,14.90
2019-05-12T11:53:08.736Z,15.20
2019-05-12T11:57:54.440Z,15.30
2019-05-12T12:02:39.417Z,15.30
2019-05-12T12:07:24.299Z,15.30
2019-05-12T12:12:08.957Z,15.50
2019-05-12T12:16:54.456Z,16.00
2019-05-12T12:21:40.444Z,16.00
2019-05-12T12:26:30.295Z,15.40
2019-05-12T12:31:13.841Z,15.90
2019-05-12T12:36:00.659Z,15.90
2019-05-12T12:40:48.173Z,15.70
2019-05-12T12:45:52.110Z,16.20
2019-05-12T12:50:36.912Z,16.20
2019-05-12T12:55:23.446Z,15.90
2019-05-12T13:00:08.568Z,15.80
2019-05-12T13:04:53.863Z,16.10
2019-05-12T13:09:38.673Z,16.20
2019-05-12T13:14:28.724Z,16.00
2019-05-12T13:19:15.099Z,16.10
2019-05-12T13:23:56.359Z,16.50
2019-05-12T13:28:45.451Z,16.20
2019-05-12T13:33:27.859Z,16.40
2019-05-12T13:38:14.471Z,16.70
2019-05-12T13:42:59.371Z,16.60
2019-05-12T13:47:44.539Z,16.10
2019-05-12T13:52:30.243Z,16.70
2019-05-12T13:57:15.664Z,17.00
2019-05-12T14:02:00.351Z,16.70
2019-05-12T14:06:47.816Z,16.90
2019-05-12T14:11:34.508Z,16.80
2019-05-12T14:16:19.028Z,16.70
2019-05-12T14:21:04.240Z,16.50
2019-05-12T14:25:49.349Z,16.80
2019-05-12T14:30:34.434Z,17.10
2019-05-12T14:35:19.246Z,17.40
2019-05-12T14:40:04.495Z,17.20
2019-05-12T14:44:49.900Z,16.30
2019-05-12T14:49:34.868Z,16.60
2019-05-12T14:54:20.548Z,17.10
2019-05-12T14:59:05.521Z,17.00
2019-05-12T15:03:50.390Z,16.70
2019-05-12T15:08:39.717Z,17.20
2019-05-12T15:13:24.049Z,17.00
2019-05-12T15:18:11.093Z,16.70
2019-05-12T15:22:55.484Z,16.70
2019-05-12T15:27:45.349Z,16.80
2019-05-12T15:32:27.567Z,17.10
2019-05-12T15:37:13.034Z,17.00
2019-05-12T15:41:58.737Z,17.10
2019-05-12T15:46:46.642Z,16.40
2019-05-12T15:51:35.465Z,16.60
2019-05-12T15:56:23.259Z,16.70
2019-05-12T16:01:04.798Z,17.00
2019-05-12T16:05:50.038Z,17.10
2019-05-12T16:10:36.486Z,17.90
2019-05-12T16:15:22.686Z,17.90
2019-05-12T16:20:07.972Z,17.60
2019-05-12T16:24:53.270Z,17.60
2019-05-12T16:29:38.847Z,17.10
2019-05-12T16:34:24.774Z,16.30
2019-05-12T16:39:09.904Z,16.00
2019-05-12T16:43:55.559Z,15.60
2019-05-12T16:48:42.061Z,15.00
2019-05-12T16:53:28.295Z,14.60
2019-05-12T16:58:13.955Z,14.30
2019-05-12T17:02:59.205Z,14.00
2019-05-12T17:07:44.510Z,13.90
2019-05-12T17:12:32.052Z,13.60
2019-05-12T17:17:16.357Z,13.70
2019-05-12T17:22:01.399Z,13.60
2019-05-12T17:26:46.342Z,13.40
2019-05-12T17:31:33.865Z,13.20
2019-05-12T17:36:19.077Z,13.30
2019-05-12T17:41:03.945Z,13.00
2019-05-12T17:45:50.515Z,12.80
2019-05-12T17:50:35.287Z,12.70
2019-05-12T17:55:20.411Z,12.60
2019-05-12T18:00:10.429Z,12.50
2019-05-12T18:04:53.510Z,12.40
2019-05-12T18:09:39.063Z,12.40
2019-05-12T18:14:27.613Z,12.20
2019-05-12T18:19:15.369Z,12.10
2019-05-12T18:24:00.445Z,12.20
2019-05-12T18:28:45.341Z,12.10
2019-05-12T18:33:34.065Z,12.10
2019-05-12T18:38:21.841Z,11.90
2019-05-12T18:43:04.001Z,11.90
2019-05-12T18:47:49.480Z,11.70
2019-05-12T18:52:42.635Z,11.70
2019-05-12T18:57:23.871Z,11.40
2019-05-12T19:02:14.567Z,11.40
2019-05-12T19:06:55.859Z,11.30
2019-05-12T19:11:42.272Z,11.20
2019-05-12T19:16:27.991Z,11.10
2019-05-12T19:21:16.680Z,11.00
2019-05-12T19:26:00.083Z,10.90
2019-05-12T19:30:45.098Z,10.80
2019-05-12T19:35:31.276Z,10.80
2019-05-12T19:40:17.718Z,10.80
2019-05-12T19:45:07.001Z,10.70
2019-05-12T19:49:50.677Z,10.60
2019-05-12T19:54:36.934Z,10.60
2019-05-12T19:59:23.604Z,10.60
2019-05-12T20:04:08.550Z,10.60
2019-05-12T20:09:05.640Z,10.50
2019-05-12T20:13:40.188Z,10.60
2019-05-12T20:18:25.250Z,10.40
2019-05-12T20:23:10.036Z,10.40
2019-05-12T20:28:04.317Z,10.20
2019-05-12T20:32:43.525Z,10.30
2019-05-12T20:37:28.255Z,10.20
2019-05-12T20:42:14.137Z,10.20
2019-05-12T20:47:01.473Z,10.10
2019-05-12T20:51:48.215Z,10.00
2019-05-12T20:56:34.320Z,10.10
2019-05-12T21:01:24.876Z,10.10
2019-05-12T21:06:06.514Z,10.10
2019-05-12T21:10:53.955Z,10.10
2019-05-12T21:15:42.797Z,10.00
2019-05-12T21:20:24.474Z,10.00
2019-05-12T21:25:11.144Z,10.00
2019-05-12T21:30:00.547Z,9.90
2019-05-12T21:34:43.771Z,9.90
2019-05-12T21:39:29.144Z,9.70
2019-05-12T21:44:14.477Z,9.90
2019-05-12T21:49:09.243Z,9.70
2019-05-12T21:53:50.611Z,9.60
2019-05-12T21:58:35.306Z,9.70
2019-05-12T22:03:20.062Z,9.60
2019-05-12T22:08:12.408Z,9.60
2019-05-12T22:12:53.675Z,9.50
2019-05-12T22:17:56.206Z,9.50
2019-05-12T22:22:43.042Z,9.40
2019-05-12T22:27:30.843Z,9.20
2019-05-12T22:32:18.997Z,9.20
2019-05-12T22:37:01.009Z,9.10
2019-05-12T22:41:45.930Z,9.00
2019-05-12T22:46:33.014Z,9.00
2019-05-12T22:51:23.490Z,9.00
2019-05-12T22:56:12.233Z,8.90
2019-05-12T23:00:51.272Z,8.80
2019-05-12T23:05:37.765Z,8.80
2019-05-12T23:10:22.942Z,8.80
2019-05-12T23:15:08.160Z,8.70
2019-05-12T23:19:55.642Z,8.70
2019-05-12T23:24:40.788Z,8.60
2019-05-12T23:29:30.719Z,8.60
2019-05-12T23:34:14.556Z,8.50
2019-05-12T23:39:00.865Z,8.30
2019-05-12T23:43:47.248Z,8.30
2019-05-12T23:48:33.555Z,8.20
2019-05-12T23:53:18.865Z,8.20
2019-05-12T23:58:04.374Z,8.10
